首页
METAR-TAF:

METAR-TAF

机场 :

Katherine, 澳大利亚

纬度: 14-26S, 经度: 132-16E, 海拔: 108米

当前天气观测

该预报发布于39分钟前的01:30 UTC
风速10节,风向
温度 33°C
湿度 24%
气压 1017 hPa
能见度10公里或以上

METAR: YPTN 310130Z AUTO 10010KT 9999 // NCD 33/10 Q1017 RF00.0/000.0

时间: 11:39 (02:09 UTC)

预报

该预报发布于3小时和12分钟前的22:57 UTC
预报有效从31日的 00点(UTC)到 01日的 00点(UTC)
风速12节,风向东转东南
能见度10公里或以上
1500米以下无云,无积雨云
从 31日的 0800点(UTC)
风速5节,风向
能见度10公里或以上
1500米以下无云,无积雨云

TAF: YPTN 302257Z 3100/0100 11012KT CAVOK FM310800 10005KT CAVOK

超过4000个机场的气象观测和天气预报(METAR&TAF报告)。

可查询的气象台以黄色和红色小点在地图上表示。

将鼠标移到小点上方,可查看气象台名称。

然后点击查看天气观测和预报。

如需切换地图:点击带黑十字的绿色按钮放大地图;点击带横线的绿色按钮缩小地图;或者点击绿色箭头查看邻近地区的地图。


METAR-TAF: